Time;durP1;ratioP1;P1;durP2;ratioP2;P2;SDS_P1;SDS_P2;PMS_P1;PMS_P2;Temp;Humidity;BMP_temperature;BMP_pressure;BME280_temperature;BME280_humidity;BME280_pressure;Samples;Min_cycle;Max_cycle;Signal;HPM_P1;HPM_P2
2023/07/28 00:01:07;;;;;;;15.10;5.30;;;;;;;17.77;100.00;100535.06;6060570;19;20017;-71
2023/07/28 00:03:13;;;;;;;12.55;4.78;;;;;;;17.77;100.00;100529.75;6060332;19;20031;-69
2023/07/28 00:05:18;;;;;;;11.43;4.50;;;;;;;17.74;100.00;100539.75;6061449;19;20806;-69
2023/07/28 00:07:22;;;;;;;16.27;5.47;;;;;;;17.77;100.00;100537.72;6060363;19;20007;-69
2023/07/28 00:09:28;;;;;;;18.23;5.75;;;;;;;17.76;100.00;100537.81;6052065;19;20003;-69
2023/07/28 00:11:33;;;;;;;13.60;5.13;;;;;;;17.78;100.00;100538.56;6060140;19;20338;-69
2023/07/28 00:13:39;;;;;;;15.95;5.68;;;;;;;17.75;100.00;100541.47;6062403;19;20205;-69
2023/07/28 00:15:44;;;;;;;12.88;5.57;;;;;;;17.77;100.00;100543.03;6058457;19;20432;-69
2023/07/28 00:17:49;;;;;;;13.27;5.65;;;;;;;17.77;100.00;100542.16;6066197;19;20186;-69
2023/07/28 00:19:54;;;;;;;14.23;5.07;;;;;;;17.80;100.00;100538.47;6066518;19;20014;-69
2023/07/28 00:21:59;;;;;;;14.50;6.25;;;;;;;17.79;100.00;100534.97;6071566;19;20392;-69
2023/07/28 00:24:02;;;;;;;14.35;5.82;;;;;;;17.76;100.00;100536.00;6065220;19;20014;-69
2023/07/28 00:26:08;;;;;;;16.23;5.75;;;;;;;17.78;100.00;100535.91;6067084;19;20006;-69
2023/07/28 00:28:13;;;;;;;17.98;5.95;;;;;;;17.75;100.00;100534.31;6067507;19;20430;-69
2023/07/28 00:30:21;;;;;;;11.68;5.10;;;;;;;17.75;100.00;100537.00;6071447;19;20193;-69
2023/07/28 00:32:29;;;;;;;17.13;5.72;;;;;;;17.78;100.00;100527.94;6070093;19;20051;-71
2023/07/28 00:34:40;;;;;;;13.65;6.20;;;;;;;17.78;100.00;100533.25;6047678;19;20389;-70
2023/07/28 00:36:45;;;;;;;14.73;5.75;;;;;;;17.80;100.00;100541.13;6067112;19;20014;-69
2023/07/28 00:38:47;;;;;;;12.00;5.65;;;;;;;17.73;100.00;100536.25;6069120;19;20015;-71
2023/07/28 00:40:52;;;;;;;14.05;5.30;;;;;;;17.73;100.00;100530.94;6070082;19;20082;-71
2023/07/28 00:42:58;;;;;;;18.15;6.72;;;;;;;17.75;100.00;100537.00;6078942;19;20307;-70
2023/07/28 00:45:08;;;;;;;15.02;5.57;;;;;;;17.79;100.00;100540.28;6071678;19;20017;-70
2023/07/28 00:47:15;;;;;;;14.10;5.70;;;;;;;17.81;100.00;100538.38;6071635;19;21033;-69
2023/07/28 00:49:29;;;;;;;17.10;6.35;;;;;;;17.86;100.00;100546.84;6063638;19;20299;-69
2023/07/28 00:51:36;;;;;;;23.25;6.97;;;;;;;17.84;100.00;100538.13;6074077;19;20023;-69
2023/07/28 00:53:43;;;;;;;15.82;5.78;;;;;;;17.81;100.00;100537.53;6069263;19;20651;-70
2023/07/28 00:55:48;;;;;;;15.05;5.82;;;;;;;17.84;100.00;100538.13;6072716;19;20291;-69
2023/07/28 00:57:53;;;;;;;20.20;7.40;;;;;;;17.80;100.00;100542.00;6076256;19;20264;-69
2023/07/28 00:59:59;;;;;;;14.35;5.55;;;;;;;17.81;100.00;100535.69;6069625;19;20518;-70
2023/07/28 01:02:05;;;;;;;20.58;5.85;;;;;;;17.87;100.00;100537.03;6073595;19;20184;-70
2023/07/28 01:04:12;;;;;;;12.25;5.13;;;;;;;17.89;100.00;100530.66;6071255;19;20343;-68
2023/07/28 01:06:33;;;;;;;16.48;6.57;;;;;;;17.90;100.00;100535.00;6078247;19;20003;-69
2023/07/28 01:08:44;;;;;;;14.45;6.85;;;;;;;17.87;100.00;100535.22;6078293;19;20332;-70
2023/07/28 01:10:49;;;;;;;12.77;5.32;;;;;;;17.86;100.00;100541.53;6079268;19;20027;-69
2023/07/28 01:12:55;;;;;;;18.45;6.28;;;;;;;17.81;100.00;100533.03;6072043;19;20014;-69
2023/07/28 01:15:02;;;;;;;16.25;6.28;;;;;;;17.86;100.00;100538.88;6065393;19;20139;-71
2023/07/28 01:17:07;;;;;;;14.40;5.72;;;;;;;17.87;100.00;100543.19;6076745;19;20468;-69
2023/07/28 01:19:18;;;;;;;13.75;5.90;;;;;;;17.83;100.00;100541.75;6078263;19;20118;-69
2023/07/28 01:21:28;;;;;;;11.27;5.53;;;;;;;17.85;100.00;100544.28;6072425;19;20100;-70
2023/07/28 01:23:48;;;;;;;15.80;6.93;;;;;;;17.89;100.00;100537.78;6078922;19;20010;-69
2023/07/28 01:26:02;;;;;;;14.85;5.63;;;;;;;17.88;100.00;100536.94;6073405;19;20319;-69
2023/07/28 01:28:12;;;;;;;15.27;5.85;;;;;;;17.88;100.00;100544.91;6073836;19;20031;-68
2023/07/28 01:30:19;;;;;;;12.75;6.00;;;;;;;17.89;100.00;100540.44;6078236;19;20589;-69
2023/07/28 01:32:24;;;;;;;16.40;6.63;;;;;;;17.86;100.00;100536.19;6070780;19;20393;-70
2023/07/28 01:34:32;;;;;;;14.50;5.55;;;;;;;17.90;100.00;100529.66;6075169;19;20074;-70
2023/07/28 01:36:39;;;;;;;17.05;5.90;;;;;;;17.91;100.00;100535.88;6071494;19;20022;-70
2023/07/28 01:38:44;;;;;;;17.75;6.57;;;;;;;17.90;100.00;100532.34;6076280;19;20132;-70
2023/07/28 01:40:46;;;;;;;13.77;6.55;;;;;;;17.92;100.00;100534.88;6075420;19;20003;-70
2023/07/28 01:42:51;;;;;;;13.27;5.20;;;;;;;17.92;100.00;100543.69;6081832;19;20511;-70
2023/07/28 01:44:59;;;;;;;16.38;6.00;;;;;;;17.92;100.00;100540.19;6077327;19;20601;-71
2023/07/28 01:47:04;;;;;;;18.45;7.97;;;;;;;17.91;100.00;100542.03;6078638;19;20010;-70
2023/07/28 01:49:10;;;;;;;15.45;6.28;;;;;;;17.95;100.00;100534.66;6079112;19;20007;-70
2023/07/28 01:51:17;;;;;;;17.52;6.38;;;;;;;17.96;100.00;100545.19;6076698;19;20278;-69
2023/07/28 01:53:22;;;;;;;13.18;5.45;;;;;;;17.94;100.00;100544.44;6078346;19;20420;-69
2023/07/28 01:55:28;;;;;;;15.38;6.45;;;;;;;17.94;100.00;100541.78;6076061;19;20466;-69
2023/07/28 01:57:36;;;;;;;17.73;5.93;;;;;;;17.97;100.00;100544.19;6075680;19;20288;-69
2023/07/28 01:59:47;;;;;;;14.85;5.70;;;;;;;17.98;100.00;100542.38;6081956;19;20010;-69
2023/07/28 02:01:55;;;;;;;16.40;5.65;;;;;;;17.99;100.00;100541.44;6079145;19;20042;-69
2023/07/28 02:04:12;;;;;;;13.90;5.05;;;;;;;17.96;100.00;100539.84;6050764;19;20681;-70
2023/07/28 02:06:31;;;;;;;19.42;5.93;;;;;;;17.97;100.00;100536.22;6078460;19;20440;-69
2023/07/28 02:08:53;;;;;;;14.73;6.75;;;;;;;17.94;100.00;100532.97;6048164;19;20018;-71
2023/07/28 02:11:14;;;;;;;14.77;6.50;;;;;;;17.98;100.00;100529.97;6077757;19;20268;-71
2023/07/28 02:13:19;;;;;;;19.42;6.43;;;;;;;18.02;100.00;100533.22;6057211;19;20354;-70
2023/07/28 02:15:25;;;;;;;18.35;6.60;;;;;;;17.96;100.00;100531.88;6075521;19;20330;-68
2023/07/28 02:17:30;;;;;;;15.05;7.13;;;;;;;17.98;100.00;100529.09;6071065;19;20378;-70
2023/07/28 02:19:35;;;;;;;19.05;6.88;;;;;;;17.98;100.00;100524.66;6073215;19;20293;-70
2023/07/28 02:21:41;;;;;;;16.10;6.45;;;;;;;17.95;100.00;100526.66;6068163;19;20460;-69
2023/07/28 02:23:45;;;;;;;17.23;6.20;;;;;;;17.94;100.00;100532.97;6072742;19;20464;-69
2023/07/28 02:25:51;;;;;;;20.10;6.82;;;;;;;17.96;100.00;100529.22;6077414;19;20475;-69
2023/07/28 02:27:56;;;;;;;18.98;6.63;;;;;;;17.91;100.00;100530.53;6075226;19;20038;-69
2023/07/28 02:30:03;;;;;;;17.90;6.68;;;;;;;17.95;100.00;100532.00;6074768;19;20019;-69
2023/07/28 02:32:11;;;;;;;12.68;5.93;;;;;;;18.03;100.00;100536.72;6075952;19;20125;-69
2023/07/28 02:34:19;;;;;;;16.85;7.40;;;;;;;18.01;100.00;100533.31;6079560;19;20039;-69
2023/07/28 02:36:24;;;;;;;18.13;6.78;;;;;;;18.01;100.00;100539.50;6084112;19;20027;-69
2023/07/28 02:38:29;;;;;;;18.45;6.22;;;;;;;18.02;100.00;100540.34;6079150;19;20269;-69
2023/07/28 02:40:35;;;;;;;17.02;6.65;;;;;;;18.02;100.00;100545.69;6076628;19;20007;-69
2023/07/28 02:42:41;;;;;;;19.50;7.38;;;;;;;17.97;100.00;100541.53;6076534;19;20003;-69
2023/07/28 02:44:46;;;;;;;19.63;6.15;;;;;;;18.01;100.00;100542.19;6079480;19;20262;-69
2023/07/28 02:46:59;;;;;;;20.33;6.82;;;;;;;18.03;100.00;100542.03;6083686;19;20014;-70
2023/07/28 02:49:16;;;;;;;20.15;6.25;;;;;;;18.05;100.00;100537.47;6072247;19;20318;-71
2023/07/28 02:51:25;;;;;;;15.88;7.28;;;;;;;18.01;100.00;100541.31;6056922;19;20010;-69
2023/07/28 02:53:34;;;;;;;16.90;7.13;;;;;;;17.94;100.00;100533.81;6074824;19;20356;-70
2023/07/28 02:55:47;;;;;;;17.25;6.55;;;;;;;18.01;100.00;100541.31;6079937;19;20126;-70
2023/07/28 02:57:52;;;;;;;19.50;8.25;;;;;;;17.98;100.00;100545.91;6082617;19;20031;-69
2023/07/28 02:59:58;;;;;;;16.80;6.85;;;;;;;17.99;100.00;100536.97;6078178;19;20014;-69
2023/07/28 03:02:03;;;;;;;17.42;7.18;;;;;;;17.99;100.00;100546.75;6077508;19;20031;-69
2023/07/28 03:04:09;;;;;;;16.25;6.78;;;;;;;18.04;100.00;100555.22;6079143;19;20010;-69
2023/07/28 03:06:14;;;;;;;18.85;7.80;;;;;;;18.00;100.00;100551.09;6072986;19;20358;-69
2023/07/28 03:08:21;;;;;;;24.08;8.82;;;;;;;17.98;100.00;100556.56;6080265;19;20070;-69
2023/07/28 03:10:27;;;;;;;18.77;7.70;;;;;;;17.98;100.00;100561.88;6079388;19;20407;-69
2023/07/28 03:12:32;;;;;;;16.73;7.15;;;;;;;17.92;100.00;100564.97;6079128;19;20035;-69
2023/07/28 03:14:38;;;;;;;14.02;8.10;;;;;;;17.91;100.00;100559.78;6076675;19;20014;-71
2023/07/28 03:16:45;;;;;;;23.23;7.07;;;;;;;17.96;100.00;100565.59;6074295;19;20050;-69
2023/07/28 03:18:51;;;;;;;18.27;6.43;;;;;;;17.94;100.00;100555.06;6077526;19;20015;-69
2023/07/28 03:20:56;;;;;;;21.77;7.20;;;;;;;17.93;100.00;100563.16;6072614;19;20056;-69
2023/07/28 03:23:17;;;;;;;20.20;8.98;;;;;;;17.94;100.00;100562.22;6079799;19;20011;-70
2023/07/28 03:25:25;;;;;;;21.23;7.97;;;;;;;17.92;100.00;100557.00;6078769;19;20073;-69
2023/07/28 03:27:33;;;;;;;22.15;7.47;;;;;;;17.97;100.00;100559.31;6075502;19;20243;-69
2023/07/28 03:29:38;;;;;;;20.55;7.30;;;;;;;17.92;100.00;100561.47;6074506;19;20137;-69
2023/07/28 03:31:43;;;;;;;23.02;7.65;;;;;;;17.96;100.00;100561.13;6073572;19;20086;-69
2023/07/28 03:33:48;;;;;;;17.38;7.68;;;;;;;17.99;100.00;100557.41;6069240;19;20510;-69
2023/07/28 03:35:53;;;;;;;25.50;7.68;;;;;;;18.03;100.00;100563.31;6075451;19;20275;-68
2023/07/28 03:37:58;;;;;;;16.25;7.35;;;;;;;17.97;100.00;100562.81;6080223;19;20007;-69
2023/07/28 03:40:03;;;;;;;18.13;8.30;;;;;;;17.95;100.00;100561.22;6079325;19;20025;-69
2023/07/28 03:42:12;;;;;;;16.80;6.90;;;;;;;17.99;100.00;100563.56;6081947;19;20014;-69
2023/07/28 03:44:19;;;;;;;20.73;7.43;;;;;;;17.99;100.00;100568.88;6081042;19;20010;-69
2023/07/28 03:46:24;;;;;;;22.70;7.82;;;;;;;18.03;100.00;100574.78;6077537;19;20074;-69
2023/07/28 03:48:32;;;;;;;17.63;7.50;;;;;;;17.99;100.00;100566.22;6077154;19;20048;-69
2023/07/28 03:50:38;;;;;;;14.18;6.50;;;;;;;17.98;100.00;100575.16;6080346;19;20526;-70
2023/07/28 03:52:43;;;;;;;18.38;7.22;;;;;;;17.98;100.00;100580.47;6075830;19;20078;-69
2023/07/28 03:54:48;;;;;;;18.60;7.82;;;;;;;17.99;100.00;100582.16;6081057;19;20220;-69
2023/07/28 03:56:54;;;;;;;21.48;7.78;;;;;;;17.96;100.00;100578.91;6078973;19;20037;-69
2023/07/28 03:59:02;;;;;;;20.20;7.05;;;;;;;17.98;100.00;100576.94;6079683;19;20011;-70
2023/07/28 04:01:07;;;;;;;17.95;6.88;;;;;;;18.02;100.00;100588.22;6074756;19;20007;-69
2023/07/28 04:03:13;;;;;;;14.63;6.40;;;;;;;17.98;100.00;100583.13;6078399;19;20389;-69
2023/07/28 04:05:18;;;;;;;16.33;6.78;;;;;;;18.01;100.00;100583.84;6064938;19;20011;-69
2023/07/28 04:07:23;;;;;;;17.95;7.28;;;;;;;18.03;100.00;100592.56;6071459;19;20043;-70
2023/07/28 04:09:31;;;;;;;17.92;7.32;;;;;;;18.03;100.00;100588.09;6072847;19;20488;-69
2023/07/28 04:11:38;;;;;;;17.67;7.30;;;;;;;17.98;100.00;100577.81;6073378;19;20101;-69
2023/07/28 04:13:46;;;;;;;19.25;6.70;;;;;;;18.05;100.00;100580.00;6075062;19;20063;-69
2023/07/28 04:15:55;;;;;;;14.55;7.30;;;;;;;18.01;100.00;100583.84;6076272;19;20007;-69
2023/07/28 04:18:01;;;;;;;15.98;6.80;;;;;;;18.04;100.00;100575.66;6077217;19;20017;-69
2023/07/28 04:20:08;;;;;;;24.67;7.55;;;;;;;18.07;100.00;100580.75;6077064;19;20315;-69
2023/07/28 04:22:15;;;;;;;19.25;6.80;;;;;;;18.05;100.00;100574.69;6072591;19;20295;-70
2023/07/28 04:24:20;;;;;;;17.00;7.45;;;;;;;18.05;100.00;100580.00;6076340;19;20498;-69
2023/07/28 04:26:29;;;;;;;18.27;7.50;;;;;;;18.01;100.00;100584.72;6068065;19;20499;-71
2023/07/28 04:28:34;;;;;;;15.88;6.78;;;;;;;18.04;100.00;100587.13;6073535;19;20013;-70
2023/07/28 04:30:41;;;;;;;20.67;7.15;;;;;;;18.04;100.00;100583.63;6075843;19;20006;-71
2023/07/28 04:32:50;;;;;;;16.13;6.40;;;;;;;18.06;100.00;100582.56;6074123;19;20518;-70
2023/07/28 04:34:56;;;;;;;18.13;7.05;;;;;;;18.08;100.00;100595.72;6073256;19;20013;-70
2023/07/28 04:37:01;;;;;;;19.27;7.43;;;;;;;18.09;100.00;100581.44;6078127;19;20439;-70
2023/07/28 04:39:06;;;;;;;18.25;7.30;;;;;;;18.10;100.00;100591.13;6073124;19;20010;-70
2023/07/28 04:41:11;;;;;;;14.10;6.10;;;;;;;18.09;100.00;100592.09;6074496;19;20021;-70
2023/07/28 04:43:16;;;;;;;21.88;7.30;;;;;;;18.12;100.00;100590.06;6074680;19;20011;-71
2023/07/28 04:45:21;;;;;;;20.60;7.28;;;;;;;18.15;100.00;100595.13;6067524;19;20548;-68
2023/07/28 04:47:32;;;;;;;18.13;7.25;;;;;;;18.14;100.00;100590.78;6051864;19;20483;-69
2023/07/28 04:49:53;;;;;;;17.13;6.35;;;;;;;18.12;100.00;100586.56;6074032;19;20018;-69
2023/07/28 04:51:56;;;;;;;16.83;6.40;;;;;;;18.15;100.00;100591.63;6076589;19;20020;-69
2023/07/28 04:54:01;;;;;;;;;;;;;;;18.14;100.00;100589.91;6072604;19;20397;-69
2023/07/28 04:56:08;;;;;;;17.58;6.55;;;;;;;18.22;100.00;100595.53;6076348;19;20062;-68
2023/07/28 04:58:13;;;;;;;18.60;6.65;;;;;;;18.14;100.00;100597.91;6076333;19;20393;-70
2023/07/28 05:00:18;;;;;;;20.88;7.90;;;;;;;18.17;100.00;100595.03;6076208;19;20735;-70
2023/07/28 05:02:25;;;;;;;17.25;6.85;;;;;;;18.18;100.00;100594.06;6071507;19;20452;-70
2023/07/28 05:04:31;;;;;;;15.10;6.43;;;;;;;18.18;100.00;100583.41;6077128;19;20014;-70
2023/07/28 05:06:48;;;;;;;17.92;7.22;;;;;;;18.16;100.00;100588.84;6079771;19;20678;-71
2023/07/28 05:08:58;;;;;;;19.65;7.35;;;;;;;18.26;100.00;100593.47;6076438;19;20010;-69
2023/07/28 05:11:03;;;;;;;17.17;7.45;;;;;;;18.25;100.00;100589.13;6075596;19;20549;-69
2023/07/28 05:13:06;;;;;;;14.57;6.75;;;;;;;18.32;100.00;100596.50;6078293;19;20134;-69
2023/07/28 05:15:23;;;;;;;;;;;;;;;;;;;;;
2023/07/28 05:17:29;;;;;;;17.17;7.15;;;;;;;18.29;100.00;100596.75;6071234;19;20540;-70
2023/07/28 05:19:40;;;;;;;19.40;6.90;;;;;;;18.32;100.00;100601.81;6067562;19;20014;-69
2023/07/28 05:21:45;;;;;;;17.48;7.00;;;;;;;18.31;100.00;100599.28;6055311;19;20595;-68
2023/07/28 05:23:50;;;;;;;18.42;7.43;;;;;;;18.32;100.00;100601.81;6067113;19;20015;-69
2023/07/28 05:25:56;;;;;;;16.90;7.07;;;;;;;18.35;100.00;100606.94;6063842;19;20006;-70
2023/07/28 05:28:01;;;;;;;14.93;5.90;;;;;;;18.32;100.00;100609.78;6071299;19;20664;-70
2023/07/28 05:30:11;;;;;;;20.52;7.18;;;;;;;18.33;100.00;100602.69;6069590;19;20870;-70
2023/07/28 05:32:17;;;;;;;16.10;6.65;;;;;;;18.35;100.00;100606.06;6070797;19;20524;-71
2023/07/28 05:34:22;;;;;;;15.95;7.22;;;;;;;18.33;100.00;100610.66;6069955;19;20569;-69
2023/07/28 05:36:28;;;;;;;17.95;7.53;;;;;;;18.40;100.00;100615.41;6069552;19;20387;-69
2023/07/28 05:38:38;;;;;;;16.15;6.32;;;;;;;18.36;100.00;100613.09;6070426;19;20043;-69
2023/07/28 05:40:43;;;;;;;19.88;7.03;;;;;;;18.34;100.00;100613.19;6070780;19;20196;-69
2023/07/28 05:42:48;;;;;;;17.95;7.10;;;;;;;18.36;100.00;100619.25;6072785;19;20523;-70
2023/07/28 05:44:55;;;;;;;13.77;6.28;;;;;;;18.36;100.00;100616.59;6072614;19;20103;-71
2023/07/28 05:47:03;;;;;;;16.02;6.60;;;;;;;18.42;100.00;100621.44;6073644;19;20023;-69
2023/07/28 05:49:08;;;;;;;13.43;6.82;;;;;;;18.48;100.00;100624.59;6070465;19;20047;-71
2023/07/28 05:51:13;;;;;;;16.17;7.28;;;;;;;18.47;100.00;100618.41;6072366;19;20010;-70
2023/07/28 05:53:15;;;;;;;14.93;6.22;;;;;;;18.53;100.00;100623.25;6066227;19;20079;-69
2023/07/28 05:55:23;;;;;;;17.05;7.13;;;;;;;18.53;100.00;100628.59;6064817;19;20014;-70
2023/07/28 05:57:28;;;;;;;15.52;7.28;;;;;;;18.46;100.00;100623.84;6070268;19;20183;-69
2023/07/28 05:59:31;;;;;;;18.15;6.90;;;;;;;18.55;100.00;100631.13;6073050;19;20044;-69
2023/07/28 06:01:36;;;;;;;13.63;5.95;;;;;;;18.51;100.00;100637.66;6068216;19;20014;-69
2023/07/28 06:03:42;;;;;;;13.40;6.70;;;;;;;18.53;100.00;100633.06;6070958;19;20021;-69
2023/07/28 06:05:50;;;;;;;16.92;8.02;;;;;;;18.52;100.00;100634.03;6081640;19;20032;-69
2023/07/28 06:07:58;;;;;;;12.65;6.32;;;;;;;18.56;100.00;100638.16;6069432;19;20452;-70
2023/07/28 06:10:04;;;;;;;17.75;7.00;;;;;;;18.55;100.00;100639.97;6065795;19;20410;-70
2023/07/28 06:12:13;;;;;;;16.23;8.02;;;;;;;18.59;100.00;100641.44;6061025;19;20176;-70
2023/07/28 06:14:15;;;;;;;15.68;7.65;;;;;;;18.63;100.00;100637.56;6068389;19;20015;-70
2023/07/28 06:16:20;;;;;;;14.07;6.88;;;;;;;18.66;100.00;100641.78;6069879;19;20003;-71
2023/07/28 06:18:26;;;;;;;16.77;7.07;;;;;;;18.64;100.00;100649.91;6068986;19;20025;-69
2023/07/28 06:20:32;;;;;;;17.02;6.82;;;;;;;18.71;100.00;100650.25;6071848;19;20314;-71
2023/07/28 06:22:41;;;;;;;13.02;6.82;;;;;;;18.71;100.00;100654.75;6069130;19;20011;-69
2023/07/28 06:24:46;;;;;;;10.77;6.28;;;;;;;18.69;100.00;100654.00;6069506;19;20007;-71
2023/07/28 06:26:51;;;;;;;13.13;6.50;;;;;;;18.66;100.00;100657.75;6067859;19;20059;-70
2023/07/28 06:29:06;;;;;;;11.88;5.57;;;;;;;18.73;100.00;100666.13;6074781;19;20027;-70
2023/07/28 06:31:22;;;;;;;16.00;6.53;;;;;;;18.73;100.00;100660.81;6050952;19;20049;-69
2023/07/28 06:33:31;;;;;;;13.60;6.60;;;;;;;18.71;100.00;100668.91;6070332;19;20354;-69
2023/07/28 06:35:42;;;;;;;12.00;5.85;;;;;;;18.80;100.00;100670.03;6069635;19;20172;-71
2023/07/28 06:37:47;;;;;;;13.30;6.38;;;;;;;18.79;100.00;100679.84;6071862;19;20088;-71
2023/07/28 06:39:55;;;;;;;15.38;6.18;;;;;;;18.72;100.00;100678.59;6068174;19;20599;-70
2023/07/28 06:42:13;;;;;;;12.38;6.10;;;;;;;18.75;100.00;100677.56;6063452;19;20015;-70
2023/07/28 06:44:21;;;;;;;12.57;6.22;;;;;;;18.73;100.00;100682.94;6079427;19;20468;-71
2023/07/28 06:46:29;;;;;;;11.27;5.72;;;;;;;18.80;100.00;100683.34;6073819;19;20039;-69
2023/07/28 06:48:34;;;;;;;12.70;6.05;;;;;;;18.87;100.00;100679.25;6071548;19;20094;-70
2023/07/28 06:50:41;;;;;;;16.17;6.97;;;;;;;18.81;100.00;100682.38;6066563;19;20010;-70
2023/07/28 06:52:47;;;;;;;12.80;6.50;;;;;;;18.79;100.00;100682.50;6071907;19;20291;-70
2023/07/28 06:54:54;;;;;;;12.38;6.10;;;;;;;18.86;100.00;100681.06;6064166;19;20011;-70
2023/07/28 06:56:59;;;;;;;11.57;5.78;;;;;;;18.96;100.00;100683.03;6069568;19;20089;-72
2023/07/28 06:59:10;;;;;;;12.18;5.95;;;;;;;19.02;100.00;100690.53;6079443;19;20420;-71
2023/07/28 07:01:25;;;;;;;11.98;5.50;;;;;;;19.02;100.00;100687.84;6073439;19;20679;-71
2023/07/28 07:03:31;;;;;;;13.75;5.28;;;;;;;19.09;100.00;100691.75;6075405;19;20144;-69
2023/07/28 07:05:36;;;;;;;10.07;4.75;;;;;;;19.18;100.00;100691.00;6073278;19;20115;-69
2023/07/28 07:07:43;;;;;;;10.85;5.47;;;;;;;19.15;100.00;100699.25;6074219;19;20035;-70
2023/07/28 07:09:48;;;;;;;12.48;5.68;;;;;;;19.19;100.00;100695.34;6067362;19;20007;-72
2023/07/28 07:11:54;;;;;;;10.43;5.15;;;;;;;19.22;98.95;100697.78;6067258;19;20007;-71
2023/07/28 07:13:59;;;;;;;11.55;5.38;;;;;;;19.22;99.38;100703.13;6070835;19;20537;-71
2023/07/28 07:16:06;;;;;;;9.80;4.38;;;;;;;19.27;98.70;100708.94;6069068;19;20346;-70
2023/07/28 07:18:15;;;;;;;8.85;4.85;;;;;;;19.33;98.30;100710.25;6060033;19;20581;-70
2023/07/28 07:20:20;;;;;;;13.55;5.65;;;;;;;19.31;97.77;100712.19;6068639;19;20455;-70
2023/07/28 07:22:34;;;;;;;11.05;5.47;;;;;;;19.33;97.77;100712.94;6069113;19;20006;-70
2023/07/28 07:24:40;;;;;;;10.18;4.78;;;;;;;19.38;97.33;100716.06;6071869;19;20010;-70
2023/07/28 07:26:46;;;;;;;10.85;5.05;;;;;;;19.32;98.16;100713.88;6071748;19;20009;-70
2023/07/28 07:28:51;;;;;;;9.60;4.93;;;;;;;19.32;97.34;100716.53;6066172;19;20010;-70
2023/07/28 07:30:56;;;;;;;12.43;5.57;;;;;;;19.36;97.73;100717.16;6068017;19;20548;-70
2023/07/28 07:33:01;;;;;;;9.05;4.43;;;;;;;19.42;97.13;100714.00;6062300;19;20322;-71
2023/07/28 07:35:12;;;;;;;13.45;4.70;;;;;;;19.40;97.10;100719.44;6073316;19;20006;-71
2023/07/28 07:37:17;;;;;;;9.90;4.88;;;;;;;19.39;97.58;100716.91;6071438;19;20010;-72
2023/07/28 07:39:22;;;;;;;7.05;4.43;;;;;;;19.60;96.69;100715.19;6067525;19;20075;-72
2023/07/28 07:41:29;;;;;;;9.18;4.20;;;;;;;19.63;96.75;100712.28;6064372;19;20353;-71
2023/07/28 07:43:34;;;;;;;9.43;4.65;;;;;;;19.73;96.07;100715.09;6066075;19;20426;-70
2023/07/28 07:45:43;;;;;;;9.23;4.30;;;;;;;19.82;94.68;100716.16;6066379;19;20463;-70
2023/07/28 07:47:49;;;;;;;9.80;4.90;;;;;;;19.87;94.79;100720.13;6063972;19;20085;-70
2023/07/28 07:49:51;;;;;;;9.27;4.20;;;;;;;19.99;94.12;100720.97;6066885;19;20459;-70
2023/07/28 07:51:59;;;;;;;12.07;5.10;;;;;;;20.06;94.17;100715.97;6069214;19;20006;-70
2023/07/28 07:54:01;;;;;;;21.27;4.70;;;;;;;20.22;94.16;100715.53;6069052;19;20002;-71
2023/07/28 07:56:08;;;;;;;15.05;4.75;;;;;;;20.49;93.09;100720.41;6072225;19;20397;-71
2023/07/28 07:58:13;;;;;;;10.90;4.47;;;;;;;21.10;91.50;100727.72;6071419;19;20089;-71
2023/07/28 08:00:19;;;;;;;9.45;5.05;;;;;;;21.39;87.07;100726.03;6067105;19;20014;-70
2023/07/28 08:02:24;;;;;;;9.23;3.70;;;;;;;21.35;87.61;100729.06;6067589;19;20010;-70
2023/07/28 08:04:31;;;;;;;10.27;4.28;;;;;;;21.21;86.89;100722.28;6068338;19;20472;-70
2023/07/28 08:06:38;;;;;;;8.32;4.13;;;;;;;21.14;87.53;100729.13;6063439;19;20461;-69
2023/07/28 08:08:46;;;;;;;7.80;4.35;;;;;;;21.02;87.89;100739.91;6063196;19;20040;-69
2023/07/28 08:10:52;;;;;;;7.55;4.05;;;;;;;21.39;87.34;100742.06;6066539;19;20432;-71
2023/07/28 08:12:59;;;;;;;9.35;4.25;;;;;;;21.26;86.03;100736.91;6068220;19;20011;-70
2023/07/28 08:15:04;;;;;;;9.18;4.13;;;;;;;21.12;87.79;100739.97;6062379;19;20025;-69
2023/07/28 08:17:11;;;;;;;10.05;4.10;;;;;;;21.08;86.35;100732.34;6066759;19;20101;-69
2023/07/28 08:19:17;;;;;;;11.38;4.05;;;;;;;21.13;86.63;100746.13;6068574;19;20035;-71
2023/07/28 08:21:22;;;;;;;8.80;4.25;;;;;;;21.05;86.59;100741.47;6063507;19;20379;-70
2023/07/28 08:23:28;;;;;;;8.88;3.95;;;;;;;20.88;87.37;100742.91;6067476;19;20526;-70
2023/07/28 08:25:36;;;;;;;7.18;4.05;;;;;;;20.94;87.67;100741.53;6063539;19;20036;-70
2023/07/28 08:27:41;;;;;;;9.80;4.10;;;;;;;20.98;86.98;100743.78;6059716;19;20284;-70
2023/07/28 08:29:46;;;;;;;10.80;4.63;;;;;;;21.11;87.21;100740.06;6064454;19;20244;-70
2023/07/28 08:31:51;;;;;;;9.48;4.70;;;;;;;20.91;88.36;100739.13;6065029;19;20086;-70
2023/07/28 08:33:56;;;;;;;11.65;4.57;;;;;;;21.25;86.86;100739.75;6071453;19;20736;-71
2023/07/28 08:36:01;;;;;;;9.52;4.70;;;;;;;21.27;86.46;100737.75;6072482;19;20287;-71
2023/07/28 08:38:09;;;;;;;10.27;4.60;;;;;;;21.57;86.35;100754.81;6063795;19;20479;-71
2023/07/28 08:40:12;;;;;;;10.80;4.60;;;;;;;21.47;85.87;100752.09;6061148;19;20019;-70
2023/07/28 08:42:20;;;;;;;8.60;4.30;;;;;;;21.42;85.44;100751.66;6058614;19;20395;-69
2023/07/28 08:44:25;;;;;;;9.90;4.45;;;;;;;21.37;85.15;100752.00;6062915;19;20562;-69
2023/07/28 08:46:34;;;;;;;10.95;5.00;;;;;;;21.23;86.48;100753.22;6065368;19;20529;-70
2023/07/28 08:48:41;;;;;;;12.02;4.38;;;;;;;21.46;85.46;100751.25;6062134;19;20014;-69
2023/07/28 08:50:47;;;;;;;12.77;4.68;;;;;;;21.76;83.97;100757.53;6063090;19;20040;-70
2023/07/28 08:52:52;;;;;;;12.77;4.75;;;;;;;21.47;84.78;100750.25;6058966;19;20300;-71
2023/07/28 08:54:55;;;;;;;11.45;4.88;;;;;;;21.67;84.60;100751.19;6080432;19;20003;-68
2023/07/28 08:57:02;;;;;;;9.63;4.30;;;;;;;22.11;84.08;100753.53;6083311;19;20422;-71
2023/07/28 08:59:13;;;;;;;14.85;5.53;;;;;;;22.10;82.09;100754.53;6082757;19;20567;-68
2023/07/28 09:01:18;;;;;;;8.38;4.82;;;;;;;22.25;81.67;100746.94;6067367;19;20007;-72
2023/07/28 09:03:27;;;;;;;14.32;5.20;;;;;;;22.24;82.06;100754.13;6085506;19;20030;-68
2023/07/28 09:05:36;;;;;;;13.18;4.75;;;;;;;22.11;81.91;100764.22;6091789;19;20260;-69
2023/07/28 09:07:41;;;;;;;9.85;4.93;;;;;;;22.10;81.31;100757.19;6081620;19;20021;-69
2023/07/28 09:09:50;;;;;;;10.60;5.10;;;;;;;22.07;81.65;100754.81;6063280;19;20307;-71
2023/07/28 09:11:58;;;;;;;9.98;5.15;;;;;;;22.28;81.38;100747.53;6066201;19;20296;-70
2023/07/28 09:14:11;;;;;;;12.77;5.18;;;;;;;22.46;80.69;100753.03;6065528;19;20018;-70
2023/07/28 09:16:24;;;;;;;14.02;5.63;;;;;;;22.69;80.10;100750.03;6087347;19;20416;-70
2023/07/28 09:18:30;;;;;;;9.43;4.97;;;;;;;22.42;79.01;100756.13;6095769;19;19999;-70
2023/07/28 09:20:38;;;;;;;10.98;4.18;;;;;;;22.24;79.64;100746.09;6099529;19;20011;-70
2023/07/28 09:22:43;;;;;;;9.65;5.18;;;;;;;21.98;79.59;100748.44;6089048;19;20002;-71
2023/07/28 09:24:48;;;;;;;9.45;4.80;;;;;;;21.87;81.77;100757.41;6087421;19;20309;-71
2023/07/28 09:26:54;;;;;;;11.98;4.90;;;;;;;21.60;82.73;100751.88;6088477;19;20081;-69
2023/07/28 09:29:00;;;;;;;10.68;5.30;;;;;;;21.37;84.44;100760.03;6085291;19;20102;-69
2023/07/28 09:31:07;;;;;;;10.85;4.47;;;;;;;21.72;82.98;100757.94;6087211;19;20028;-69
2023/07/28 09:33:31;;;;;;;9.70;4.85;;;;;;;21.67;83.35;100758.38;6099969;19;20007;-70
2023/07/28 09:35:40;;;;;;;12.50;5.32;;;;;;;21.68;83.74;100763.56;6091478;19;20015;-70
2023/07/28 09:37:47;;;;;;;12.80;4.53;;;;;;;21.86;82.22;100763.75;6090653;19;20402;-68
2023/07/28 09:39:52;;;;;;;11.00;4.10;;;;;;;22.06;81.97;100769.97;6087594;19;20822;-70
2023/07/28 09:41:59;;;;;;;10.90;4.78;;;;;;;21.94;81.95;100772.94;6092352;19;20027;-69